createdAt,value
2023-04-24T00:02:12.386Z,6.40
2023-04-24T00:04:42.629Z,6.40
2023-04-24T00:07:10.122Z,6.30
2023-04-24T00:09:37.279Z,6.70
2023-04-24T00:12:07.204Z,6.80
2023-04-24T00:17:01.535Z,6.30
2023-04-24T00:19:28.854Z,6.40
2023-04-24T00:21:56.007Z,6.20
2023-04-24T00:24:23.139Z,6.60
2023-04-24T00:26:50.222Z,6.60
2023-04-24T00:29:17.366Z,5.90
2023-04-24T00:31:44.557Z,6.30
2023-04-24T00:34:13.105Z,6.30
2023-04-24T00:36:40.366Z,7.00
2023-04-24T00:39:12.013Z,6.10
2023-04-24T00:41:39.176Z,6.30
2023-04-24T00:44:06.328Z,6.00
2023-04-24T00:46:33.530Z,6.80
2023-04-24T00:49:00.955Z,6.40
2023-04-24T00:51:28.582Z,6.00
2023-04-24T00:53:55.853Z,6.20
2023-04-24T00:56:23.010Z,6.00
2023-04-24T00:58:50.567Z,6.30
2023-04-24T01:01:17.842Z,5.80
2023-04-24T01:03:45.244Z,6.50
2023-04-24T01:06:12.743Z,6.40
2023-04-24T01:08:40.000Z,6.00
2023-04-24T01:11:07.255Z,5.70
2023-04-24T01:13:34.720Z,6.10
2023-04-24T01:16:02.278Z,6.00
2023-04-24T01:18:29.760Z,5.80
2023-04-24T01:21:00.739Z,5.70
2023-04-24T01:23:28.035Z,6.20
2023-04-24T01:25:55.197Z,6.10
2023-04-24T01:28:22.548Z,6.20
2023-04-24T01:30:49.807Z,5.90
2023-04-24T01:33:17.059Z,6.20
2023-04-24T01:35:44.219Z,5.50
2023-04-24T01:38:11.568Z,6.10
2023-04-24T01:40:39.033Z,6.20
2023-04-24T01:43:06.386Z,6.60
2023-04-24T01:45:33.543Z,7.30
2023-04-24T01:48:00.730Z,7.00
2023-04-24T01:50:29.381Z,8.20
2023-04-24T01:52:56.738Z,8.10
2023-04-24T01:55:23.790Z,8.10
2023-04-24T01:57:51.559Z,7.60
2023-04-24T02:00:19.839Z,7.40
2023-04-24T02:02:48.420Z,8.40
2023-04-24T02:05:16.317Z,7.80
2023-04-24T02:07:43.549Z,7.60
2023-04-24T02:10:11.342Z,8.50
2023-04-24T02:12:42.974Z,8.00
2023-04-24T02:15:10.750Z,8.40
2023-04-24T02:17:38.285Z,9.00
2023-04-24T02:20:07.826Z,8.50
2023-04-24T02:22:34.980Z,8.30
2023-04-24T02:25:03.054Z,8.30
2023-04-24T02:27:30.197Z,8.00
2023-04-24T02:29:57.959Z,9.70
2023-04-24T02:32:25.642Z,9.00
2023-04-24T02:34:52.805Z,9.30
2023-04-24T02:37:20.032Z,8.90
2023-04-24T02:39:47.183Z,9.60
2023-04-24T02:42:14.238Z,9.70
2023-04-24T02:44:42.211Z,9.10
2023-04-24T02:47:10.078Z,9.60
2023-04-24T02:49:37.256Z,9.60
2023-04-24T02:52:04.493Z,9.50
2023-04-24T02:54:31.649Z,9.40
2023-04-24T02:56:58.821Z,10.00
2023-04-24T02:59:28.319Z,10.20
2023-04-24T03:01:55.673Z,9.70
2023-04-24T03:04:23.939Z,10.10
2023-04-24T03:06:54.075Z,10.30
2023-04-24T03:09:22.270Z,10.20
2023-04-24T03:11:50.122Z,10.10
2023-04-24T03:14:17.689Z,10.00
2023-04-24T03:17:03.566Z,10.90
2023-04-24T03:19:30.920Z,9.60
2023-04-24T03:22:05.758Z,10.50
2023-04-24T03:24:33.523Z,9.60
2023-04-24T03:27:01.496Z,9.40
2023-04-24T03:29:45.441Z,10.10
2023-04-24T03:32:12.908Z,9.80
2023-04-24T03:34:40.080Z,9.80
2023-04-24T03:37:07.638Z,9.30
2023-04-24T03:39:35.082Z,9.30
2023-04-24T03:42:02.746Z,8.60
2023-04-24T03:44:39.530Z,8.50
2023-04-24T03:47:06.788Z,8.70
2023-04-24T03:49:34.353Z,7.90
2023-04-24T03:52:01.704Z,7.90
2023-04-24T03:54:29.066Z,7.70
2023-04-24T03:56:56.525Z,7.70
2023-04-24T03:59:24.035Z,7.40
2023-04-24T04:02:01.794Z,6.80
2023-04-24T04:04:29.817Z,7.20
2023-04-24T04:06:57.212Z,6.70
2023-04-24T04:09:25.288Z,6.90
2023-04-24T04:11:52.445Z,7.40
2023-04-24T04:14:19.597Z,7.40
2023-04-24T04:16:48.298Z,7.00
2023-04-24T04:19:15.962Z,7.10
2023-04-24T04:21:43.409Z,6.60
2023-04-24T04:24:17.225Z,7.00
2023-04-24T04:26:48.364Z,6.60
2023-04-24T04:31:56.538Z,7.20
2023-04-24T04:34:24.574Z,7.60
2023-04-24T04:36:51.874Z,7.70
2023-04-24T04:39:37.714Z,7.20
2023-04-24T04:42:08.043Z,7.80
2023-04-24T04:44:41.152Z,8.10
2023-04-24T04:47:10.135Z,8.30
2023-04-24T04:49:39.897Z,7.60
2023-04-24T04:52:10.988Z,7.80
2023-04-24T04:54:38.346Z,7.50
2023-04-24T04:57:05.507Z,7.20
2023-04-24T04:59:32.959Z,7.00
2023-04-24T05:02:04.376Z,7.10
2023-04-24T05:04:32.687Z,7.30
2023-04-24T05:07:00.258Z,7.60
2023-04-24T05:09:30.600Z,7.20
2023-04-24T05:12:03.465Z,7.90
2023-04-24T05:14:32.568Z,7.80
2023-04-24T05:17:01.565Z,8.00
2023-04-24T05:19:28.924Z,8.00
2023-04-24T05:21:56.074Z,7.90
2023-04-24T05:24:23.850Z,8.20
2023-04-24T05:27:11.272Z,8.30
2023-04-24T05:29:41.619Z,8.60
2023-04-24T05:32:09.585Z,8.20
2023-04-24T05:34:36.728Z,7.60
2023-04-24T05:37:04.835Z,8.00
2023-04-24T05:39:32.049Z,7.70
2023-04-24T05:42:02.682Z,7.60
2023-04-24T05:44:29.838Z,7.10
2023-04-24T05:46:58.125Z,7.00
2023-04-24T05:49:25.677Z,7.20
2023-04-24T05:51:53.344Z,6.50
2023-04-24T05:54:20.608Z,6.50
2023-04-24T05:56:47.852Z,6.60
2023-04-24T05:59:20.225Z,6.50
2023-04-24T06:01:48.055Z,5.60
2023-04-24T06:06:45.165Z,5.70
2023-04-24T06:09:13.352Z,5.90
2023-04-24T06:11:40.598Z,5.80
2023-04-24T06:14:09.283Z,5.80
2023-04-24T06:16:59.394Z,6.60
2023-04-24T06:19:32.571Z,6.90
2023-04-24T06:21:59.714Z,5.90
2023-04-24T06:24:30.145Z,6.20
2023-04-24T06:27:00.259Z,6.00
2023-04-24T06:29:27.404Z,5.50
2023-04-24T06:31:54.725Z,5.60
2023-04-24T06:34:22.013Z,6.30
2023-04-24T06:36:49.179Z,6.00
2023-04-24T06:39:16.318Z,6.40
2023-04-24T06:41:43.467Z,6.00
2023-04-24T06:44:18.017Z,6.00
2023-04-24T06:46:45.244Z,5.90
2023-04-24T06:49:12.358Z,4.50
2023-04-24T06:51:39.568Z,4.00
2023-04-24T06:54:06.802Z,4.60
2023-04-24T06:56:35.484Z,4.50
2023-04-24T06:59:02.647Z,4.20
2023-04-24T07:01:29.952Z,3.90
2023-04-24T07:03:57.414Z,3.90
2023-04-24T07:06:24.907Z,3.90
2023-04-24T07:08:52.108Z,3.90
2023-04-24T07:11:19.313Z,3.80
2023-04-24T07:13:46.878Z,3.70
2023-04-24T07:16:14.320Z,3.70
2023-04-24T07:18:41.692Z,4.10
2023-04-24T07:21:08.968Z,4.50
2023-04-24T07:23:36.090Z,3.90
2023-04-24T07:26:03.674Z,4.10
2023-04-24T07:28:33.955Z,3.90
2023-04-24T07:31:01.543Z,4.20
2023-04-24T07:33:47.227Z,4.20
2023-04-24T07:36:18.268Z,3.80
2023-04-24T07:38:48.491Z,3.90
2023-04-24T07:41:16.060Z,4.10
2023-04-24T07:43:43.203Z,3.40
2023-04-24T07:46:10.904Z,3.00
2023-04-24T07:48:38.257Z,2.90
2023-04-24T07:51:05.373Z,3.00
2023-04-24T07:53:32.535Z,3.30
2023-04-24T07:55:59.984Z,3.30
2023-04-24T07:58:27.138Z,3.00
2023-04-24T08:00:54.292Z,2.90
2023-04-24T08:03:21.623Z,2.40
2023-04-24T08:05:49.144Z,2.60
2023-04-24T08:08:16.357Z,2.30
2023-04-24T08:10:43.617Z,2.20
2023-04-24T08:13:12.706Z,2.40
2023-04-24T08:15:39.862Z,2.50
2023-04-24T08:18:07.371Z,2.10
2023-04-24T08:20:34.573Z,2.30
2023-04-24T08:23:01.722Z,2.10
2023-04-24T08:25:29.185Z,1.90
2023-04-24T08:27:56.538Z,1.80
2023-04-24T08:30:24.418Z,2.00
2023-04-24T08:32:51.592Z,2.00
2023-04-24T08:35:19.024Z,2.20
2023-04-24T08:37:46.363Z,1.80
2023-04-24T08:40:15.563Z,2.00
2023-04-24T08:42:45.931Z,2.00
2023-04-24T08:45:13.770Z,2.10
2023-04-24T08:47:42.124Z,2.30
2023-04-24T08:50:09.860Z,2.00
2023-04-24T08:52:37.180Z,2.20
2023-04-24T08:55:05.204Z,2.00
2023-04-24T08:57:32.383Z,2.00
2023-04-24T08:59:59.662Z,1.90
2023-04-24T09:02:27.118Z,2.30
2023-04-24T09:04:54.786Z,2.00
2023-04-24T09:07:22.137Z,1.80
2023-04-24T09:09:49.284Z,1.90
2023-04-24T09:14:40.617Z,2.30
2023-04-24T09:17:07.916Z,2.20
2023-04-24T09:19:35.127Z,1.90
2023-04-24T09:22:02.801Z,2.10
2023-04-24T09:24:29.941Z,2.10
2023-04-24T09:27:02.721Z,2.30
2023-04-24T09:29:30.081Z,2.00
2023-04-24T09:31:57.356Z,1.80
2023-04-24T09:34:26.191Z,1.90
2023-04-24T09:36:54.809Z,1.90
2023-04-24T09:39:22.086Z,2.60
2023-04-24T09:41:59.057Z,2.00
2023-04-24T09:44:27.691Z,2.30
2023-04-24T09:46:59.243Z,2.10
2023-04-24T09:49:27.990Z,2.40
2023-04-24T09:52:08.688Z,2.30
2023-04-24T09:54:38.104Z,2.30
2023-04-24T09:59:33.409Z,2.20
2023-04-24T10:02:01.920Z,2.10
2023-04-24T10:04:29.863Z,2.40
2023-04-24T10:06:57.806Z,2.20
2023-04-24T10:09:27.091Z,1.90
2023-04-24T10:11:55.122Z,2.00
2023-04-24T10:14:23.638Z,2.60
2023-04-24T10:16:51.532Z,2.30
2023-04-24T10:19:21.503Z,2.40
2023-04-24T10:21:49.112Z,2.20
2023-04-24T10:24:17.521Z,2.10
2023-04-24T10:26:45.543Z,2.60
2023-04-24T10:29:13.984Z,2.40
2023-04-24T10:31:41.707Z,2.00
2023-04-24T10:34:09.914Z,2.10
2023-04-24T10:36:40.206Z,2.20
2023-04-24T10:39:09.186Z,2.30
2023-04-24T10:41:41.158Z,2.30
2023-04-24T10:44:13.667Z,2.10
2023-04-24T10:46:46.929Z,2.40
2023-04-24T10:49:15.217Z,2.20
2023-04-24T10:51:48.923Z,2.10
2023-04-24T10:54:41.767Z,2.10
2023-04-24T10:57:24.382Z,1.90
2023-04-24T11:00:11.501Z,2.10
2023-04-24T11:02:40.394Z,2.00
2023-04-24T11:05:08.636Z,2.00
2023-04-24T11:08:14.026Z,2.00
2023-04-24T11:10:48.453Z,2.00
2023-04-24T11:13:17.542Z,2.10
2023-04-24T11:15:44.898Z,2.10
2023-04-24T11:18:16.900Z,2.50
2023-04-24T11:20:45.220Z,2.00
2023-04-24T11:23:13.407Z,2.20
2023-04-24T11:25:40.487Z,2.10
2023-04-24T11:28:07.799Z,2.20
2023-04-24T11:30:35.358Z,2.10
2023-04-24T11:33:06.442Z,2.20
2023-04-24T11:35:40.622Z,2.40
2023-04-24T11:38:23.272Z,2.20
2023-04-24T11:40:52.023Z,2.00
2023-04-24T11:43:20.140Z,1.90
2023-04-24T11:45:51.088Z,2.20
2023-04-24T11:48:24.084Z,2.30
2023-04-24T11:50:52.924Z,1.90
2023-04-24T11:53:23.000Z,1.90
2023-04-24T11:55:50.507Z,2.10
2023-04-24T11:58:17.842Z,2.20
2023-04-24T12:00:46.959Z,1.70
2023-04-24T12:03:14.496Z,1.90
2023-04-24T12:05:42.251Z,2.10
2023-04-24T12:08:09.629Z,2.00
2023-04-24T12:10:37.279Z,2.20
2023-04-24T12:13:04.637Z,2.00
2023-04-24T12:15:31.834Z,1.90
2023-04-24T12:17:59.241Z,2.20
2023-04-24T12:20:31.521Z,1.90
2023-04-24T12:22:59.293Z,2.40
2023-04-24T12:25:28.173Z,1.80
2023-04-24T12:27:58.701Z,1.90
2023-04-24T12:30:29.854Z,2.00
2023-04-24T12:32:58.718Z,1.60
2023-04-24T12:35:27.152Z,1.90
2023-04-24T12:37:54.383Z,1.90
2023-04-24T12:40:22.302Z,2.00
2023-04-24T12:42:50.641Z,2.10
2023-04-24T12:45:18.735Z,1.90
2023-04-24T12:47:46.652Z,2.10
2023-04-24T12:50:15.260Z,2.10
2023-04-24T12:52:44.034Z,2.50
2023-04-24T12:55:11.304Z,2.20
2023-04-24T12:57:39.854Z,2.20
2023-04-24T13:00:08.326Z,2.50
2023-04-24T13:02:35.922Z,2.50
2023-04-24T13:05:03.585Z,2.10
2023-04-24T13:07:30.853Z,2.30
2023-04-24T13:09:59.015Z,2.20
2023-04-24T13:12:26.852Z,2.30
2023-04-24T13:14:54.594Z,2.40
2023-04-24T13:17:21.824Z,2.80
2023-04-24T13:19:51.400Z,2.30
2023-04-24T13:22:20.084Z,2.30
2023-04-24T13:24:49.796Z,2.50
2023-04-24T13:27:17.461Z,2.50
2023-04-24T13:29:44.826Z,2.60
2023-04-24T13:32:13.271Z,2.50
2023-04-24T13:34:40.656Z,2.60
2023-04-24T13:37:09.428Z,2.80
2023-04-24T13:39:37.003Z,2.90
2023-04-24T13:42:05.119Z,2.60
2023-04-24T13:44:32.514Z,3.30
2023-04-24T13:47:00.016Z,3.20
2023-04-24T13:49:27.788Z,2.90
2023-04-24T13:51:55.739Z,2.40
2023-04-24T13:54:24.567Z,2.60
2023-04-24T13:56:53.103Z,2.80
2023-04-24T13:59:21.692Z,2.40
2023-04-24T14:01:49.253Z,2.70
2023-04-24T14:04:17.038Z,3.00
2023-04-24T14:06:45.207Z,2.40
2023-04-24T14:09:12.376Z,2.60
2023-04-24T14:11:39.506Z,2.90
2023-04-24T14:14:06.871Z,2.30
2023-04-24T14:16:34.301Z,2.20
2023-04-24T14:19:01.921Z,2.10
2023-04-24T14:21:29.128Z,2.40
2023-04-24T14:23:56.283Z,2.20
2023-04-24T14:26:23.660Z,1.80
2023-04-24T14:28:51.243Z,1.90
2023-04-24T14:31:19.715Z,2.30
2023-04-24T14:33:47.375Z,2.50
2023-04-24T14:36:14.815Z,2.00
2023-04-24T14:38:41.955Z,2.30
2023-04-24T14:41:14.054Z,2.40
2023-04-24T14:43:41.689Z,2.20
2023-04-24T14:46:09.089Z,2.30
2023-04-24T14:48:36.408Z,2.00
2023-04-24T14:51:03.752Z,2.00
2023-04-24T14:53:31.321Z,2.00
2023-04-24T14:55:58.464Z,2.20
2023-04-24T14:58:25.732Z,1.80
2023-04-24T15:00:55.737Z,1.90
2023-04-24T15:03:24.238Z,2.00
2023-04-24T15:05:52.115Z,1.90
2023-04-24T15:08:19.341Z,1.70
2023-04-24T15:10:46.505Z,1.90
2023-04-24T15:13:13.643Z,2.00
2023-04-24T15:15:41.312Z,1.90
2023-04-24T15:18:09.580Z,2.00
2023-04-24T15:20:38.670Z,2.00
2023-04-24T15:23:09.825Z,2.10
2023-04-24T15:25:37.573Z,2.00
2023-04-24T15:28:05.978Z,2.20
2023-04-24T15:30:33.232Z,2.00
2023-04-24T15:33:01.357Z,2.30
2023-04-24T15:35:28.579Z,3.00
2023-04-24T15:37:56.218Z,4.70
2023-04-24T15:40:23.668Z,4.30
2023-04-24T15:42:51.434Z,4.30
2023-04-24T15:45:18.700Z,4.20
2023-04-24T15:47:47.782Z,3.60
2023-04-24T15:50:17.243Z,3.20
2023-04-24T15:52:44.449Z,3.30
2023-04-24T15:55:12.924Z,3.00
2023-04-24T15:57:40.495Z,3.10
2023-04-24T16:00:09.043Z,2.80
2023-04-24T16:02:39.503Z,2.90
2023-04-24T16:05:07.987Z,2.90
2023-04-24T16:07:35.543Z,2.30
2023-04-24T16:10:02.713Z,2.90
2023-04-24T16:12:29.857Z,2.80
2023-04-24T16:14:57.198Z,2.40
2023-04-24T16:17:24.355Z,2.60
2023-04-24T16:19:51.499Z,2.50
2023-04-24T16:22:18.573Z,2.60
2023-04-24T16:24:48.195Z,3.10
2023-04-24T16:27:15.927Z,2.90
2023-04-24T16:29:43.090Z,3.60
2023-04-24T16:32:11.456Z,3.40
2023-04-24T16:34:38.813Z,3.50
2023-04-24T16:37:06.695Z,3.40
2023-04-24T16:39:34.279Z,4.30
2023-04-24T16:42:02.102Z,3.90
2023-04-24T16:44:29.251Z,3.70
2023-04-24T16:46:57.094Z,3.70
2023-04-24T16:49:24.373Z,3.60
2023-04-24T16:51:51.526Z,3.70
2023-04-24T16:54:18.621Z,3.60
2023-04-24T16:56:45.955Z,3.70
2023-04-24T16:59:13.192Z,4.40
2023-04-24T17:01:40.331Z,4.40
2023-04-24T17:04:07.667Z,5.80
2023-04-24T17:06:35.555Z,5.00
2023-04-24T17:09:02.830Z,4.90
2023-04-24T17:11:31.244Z,4.00
2023-04-24T17:14:01.414Z,4.30
2023-04-24T17:18:55.713Z,6.60
2023-04-24T17:21:23.780Z,6.40
2023-04-24T17:23:51.240Z,6.20
2023-04-24T17:26:18.494Z,6.60
2023-04-24T17:28:45.680Z,6.70
2023-04-24T17:31:12.796Z,6.50
2023-04-24T17:33:39.962Z,7.60
2023-04-24T17:36:07.974Z,5.60
2023-04-24T17:38:35.167Z,6.80
2023-04-24T17:41:02.333Z,8.90
2023-04-24T17:43:29.476Z,9.30
2023-04-24T17:45:57.005Z,7.40
2023-04-24T17:48:24.200Z,6.50
2023-04-24T17:50:51.953Z,7.20
2023-04-24T17:53:19.204Z,5.80
2023-04-24T17:55:49.223Z,4.90
2023-04-24T18:00:44.328Z,4.90
2023-04-24T18:03:11.783Z,6.00
2023-04-24T18:05:39.189Z,5.10
2023-04-24T18:08:06.420Z,8.10
2023-04-24T18:10:36.514Z,9.10
2023-04-24T18:13:04.479Z,9.00
2023-04-24T18:15:31.906Z,8.00
2023-04-24T18:17:59.436Z,5.90
2023-04-24T18:20:26.863Z,5.90
2023-04-24T18:22:54.125Z,10.80
2023-04-24T18:25:27.002Z,7.50
2023-04-24T18:27:55.073Z,5.30
2023-04-24T18:30:22.603Z,4.20
2023-04-24T18:32:50.759Z,4.10
2023-04-24T18:35:19.392Z,4.80
2023-04-24T18:37:46.776Z,4.40
2023-04-24T18:40:14.779Z,4.50
2023-04-24T18:42:41.969Z,5.20
2023-04-24T18:45:11.257Z,5.10
2023-04-24T18:47:39.787Z,5.40
2023-04-24T18:50:07.826Z,8.40
2023-04-24T18:52:34.992Z,10.80
2023-04-24T18:55:03.889Z,10.10
2023-04-24T18:57:31.226Z,7.90
2023-04-24T18:59:58.377Z,6.70
2023-04-24T19:02:25.599Z,6.30
2023-04-24T19:04:52.886Z,6.30
2023-04-24T19:07:20.045Z,5.70
2023-04-24T19:09:47.292Z,5.30
2023-04-24T19:12:14.441Z,5.70
2023-04-24T19:14:41.697Z,5.70
2023-04-24T19:17:10.384Z,5.50
2023-04-24T19:19:37.836Z,5.50
2023-04-24T19:22:05.050Z,5.90
2023-04-24T19:24:33.850Z,5.90
2023-04-24T19:27:01.962Z,6.40
2023-04-24T19:29:29.121Z,7.50
2023-04-24T19:31:58.126Z,7.50
2023-04-24T19:34:26.322Z,6.10
2023-04-24T19:36:53.744Z,6.00
2023-04-24T19:39:21.300Z,5.90
2023-04-24T19:41:48.448Z,5.40
2023-04-24T19:44:17.458Z,5.30
2023-04-24T19:46:44.800Z,5.50
2023-04-24T19:49:12.260Z,5.30
2023-04-24T19:51:39.751Z,5.30
2023-04-24T19:54:07.692Z,5.60
2023-04-24T19:56:34.947Z,5.40
2023-04-24T19:59:02.317Z,5.30
2023-04-24T20:01:29.602Z,5.30
2023-04-24T20:03:57.088Z,5.70
2023-04-24T20:06:24.572Z,5.00
2023-04-24T20:08:51.832Z,4.90
2023-04-24T20:11:19.086Z,4.90
2023-04-24T20:13:46.232Z,4.90
2023-04-24T20:16:13.426Z,4.60
2023-04-24T20:18:40.629Z,4.80
2023-04-24T20:21:09.292Z,4.80
2023-04-24T20:23:36.496Z,4.60
2023-04-24T20:26:05.231Z,4.80
2023-04-24T20:28:33.135Z,4.80
2023-04-24T20:31:00.441Z,4.70
2023-04-24T20:33:28.702Z,4.50
2023-04-24T20:35:55.918Z,4.10
2023-04-24T20:38:23.172Z,4.20
2023-04-24T20:40:57.855Z,4.50
2023-04-24T20:43:28.643Z,4.60
2023-04-24T20:45:58.242Z,4.60
2023-04-24T20:48:35.026Z,4.30
2023-04-24T20:51:02.275Z,4.60
2023-04-24T20:53:29.525Z,4.50
2023-04-24T20:55:56.694Z,4.60
2023-04-24T20:58:24.719Z,5.00
2023-04-24T21:00:52.025Z,4.90
2023-04-24T21:03:19.657Z,4.60
2023-04-24T21:05:47.233Z,4.70
2023-04-24T21:08:20.424Z,5.20
2023-04-24T21:10:47.784Z,5.50
2023-04-24T21:13:14.927Z,5.30
2023-04-24T21:15:42.089Z,5.50
2023-04-24T21:18:09.283Z,5.30
2023-04-24T21:20:36.590Z,5.30
2023-04-24T21:23:03.739Z,4.60
2023-04-24T21:25:31.197Z,4.50
2023-04-24T21:27:59.821Z,4.40
2023-04-24T21:31:44.069Z,4.90
2023-04-24T21:34:11.399Z,5.00
2023-04-24T21:36:38.555Z,5.10
2023-04-24T21:39:05.905Z,5.10
2023-04-24T21:41:33.063Z,5.00
2023-04-24T21:44:00.315Z,5.00
2023-04-24T21:46:27.481Z,5.30
2023-04-24T21:48:55.232Z,5.10
2023-04-24T21:51:22.391Z,3.90
2023-04-24T21:53:49.890Z,4.10
2023-04-24T21:56:17.401Z,4.50
2023-04-24T21:58:44.969Z,4.40
2023-04-24T22:01:12.378Z,4.70
2023-04-24T22:03:39.736Z,4.40
2023-04-24T22:06:07.141Z,4.50
2023-04-24T22:08:34.401Z,4.10
2023-04-24T22:11:01.647Z,4.70
2023-04-24T22:13:29.316Z,4.60
2023-04-24T22:15:56.551Z,4.20
2023-04-24T22:18:30.583Z,4.60
2023-04-24T22:23:31.434Z,4.60
2023-04-24T22:25:58.587Z,4.90
2023-04-24T22:28:26.044Z,4.80
2023-04-24T22:30:53.191Z,4.40
2023-04-24T22:33:35.992Z,4.60
2023-04-24T22:36:03.373Z,4.30
2023-04-24T22:38:30.623Z,4.40
2023-04-24T22:40:57.773Z,4.70
2023-04-24T22:43:25.026Z,4.40
2023-04-24T22:45:52.184Z,5.00
2023-04-24T22:48:19.433Z,4.50
2023-04-24T22:50:46.894Z,4.90
2023-04-24T22:53:14.043Z,4.20
2023-04-24T22:55:41.194Z,4.60
2023-04-24T22:58:08.349Z,4.20
2023-04-24T23:00:35.475Z,4.30
2023-04-24T23:03:02.696Z,4.50
2023-04-24T23:05:31.338Z,4.10
2023-04-24T23:07:58.589Z,3.90
2023-04-24T23:10:26.056Z,4.40
2023-04-24T23:12:53.202Z,4.60
2023-04-24T23:15:20.355Z,4.40
2023-04-24T23:17:47.525Z,4.60
2023-04-24T23:20:15.025Z,4.60
2023-04-24T23:22:42.220Z,4.10
2023-04-24T23:25:11.021Z,4.30
2023-04-24T23:27:38.169Z,4.50
2023-04-24T23:30:07.103Z,4.20
2023-04-24T23:32:34.359Z,4.30
2023-04-24T23:35:01.568Z,4.30
2023-04-24T23:37:28.719Z,3.90
2023-04-24T23:39:55.870Z,4.10
2023-04-24T23:42:23.026Z,4.40
2023-04-24T23:44:50.172Z,4.40
2023-04-24T23:47:17.342Z,3.90
2023-04-24T23:49:44.575Z,4.20
2023-04-24T23:52:11.732Z,4.40
2023-04-24T23:54:38.881Z,4.40
2023-04-24T23:57:06.037Z,4.70
2023-04-24T23:59:33.183Z,4.20
